sensor_id;sensor_type;location;lat;lon;timestamp;P1;durP1;ratioP1;P2;durP2;ratioP2
5010;SDS011;2524;54.364;10.072;2023-02-15T00:00:19;23.87;;;16.40;;
5010;SDS011;2524;54.364;10.072;2023-02-15T00:02:44;24.87;;;16.43;;
5010;SDS011;2524;54.364;10.072;2023-02-15T00:05:10;25.53;;;17.20;;
5010;SDS011;2524;54.364;10.072;2023-02-15T00:07:35;25.73;;;16.90;;
5010;SDS011;2524;54.364;10.072;2023-02-15T00:10:01;24.07;;;16.23;;
5010;SDS011;2524;54.364;10.072;2023-02-15T00:12:27;27.43;;;17.87;;
5010;SDS011;2524;54.364;10.072;2023-02-15T00:14:53;23.57;;;16.13;;
5010;SDS011;2524;54.364;10.072;2023-02-15T00:17:18;23.97;;;16.40;;
5010;SDS011;2524;54.364;10.072;2023-02-15T00:19:44;29.93;;;18.90;;
5010;SDS011;2524;54.364;10.072;2023-02-15T00:22:09;26.80;;;17.00;;
5010;SDS011;2524;54.364;10.072;2023-02-15T00:24:35;23.67;;;17.00;;
5010;SDS011;2524;54.364;10.072;2023-02-15T00:27:00;27.83;;;17.63;;
5010;SDS011;2524;54.364;10.072;2023-02-15T00:29:26;26.73;;;17.80;;
5010;SDS011;2524;54.364;10.072;2023-02-15T00:31:52;23.97;;;16.10;;
5010;SDS011;2524;54.364;10.072;2023-02-15T00:34:19;24.67;;;16.93;;
5010;SDS011;2524;54.364;10.072;2023-02-15T00:36:47;23.73;;;15.60;;
5010;SDS011;2524;54.364;10.072;2023-02-15T00:39:13;23.60;;;16.70;;
5010;SDS011;2524;54.364;10.072;2023-02-15T00:41:39;25.67;;;17.97;;
5010;SDS011;2524;54.364;10.072;2023-02-15T00:44:05;25.97;;;17.70;;
5010;SDS011;2524;54.364;10.072;2023-02-15T00:46:32;24.30;;;16.73;;
5010;SDS011;2524;54.364;10.072;2023-02-15T00:48:58;26.43;;;17.33;;
5010;SDS011;2524;54.364;10.072;2023-02-15T00:51:24;26.87;;;16.73;;
5010;SDS011;2524;54.364;10.072;2023-02-15T00:53:50;31.70;;;19.50;;
5010;SDS011;2524;54.364;10.072;2023-02-15T00:56:16;23.90;;;15.57;;
5010;SDS011;2524;54.364;10.072;2023-02-15T00:58:43;20.90;;;14.87;;
5010;SDS011;2524;54.364;10.072;2023-02-15T01:01:10;24.33;;;16.03;;
5010;SDS011;2524;54.364;10.072;2023-02-15T01:03:37;26.30;;;17.47;;
5010;SDS011;2524;54.364;10.072;2023-02-15T01:06:03;21.53;;;15.37;;
5010;SDS011;2524;54.364;10.072;2023-02-15T01:08:29;21.37;;;15.60;;
5010;SDS011;2524;54.364;10.072;2023-02-15T01:10:56;21.47;;;14.90;;
5010;SDS011;2524;54.364;10.072;2023-02-15T01:13:22;22.13;;;15.40;;
5010;SDS011;2524;54.364;10.072;2023-02-15T01:16:01;24.47;;;17.00;;
5010;SDS011;2524;54.364;10.072;2023-02-15T01:18:27;27.30;;;17.23;;
5010;SDS011;2524;54.364;10.072;2023-02-15T01:20:53;25.20;;;16.40;;
5010;SDS011;2524;54.364;10.072;2023-02-15T01:23:19;25.10;;;16.40;;
5010;SDS011;2524;54.364;10.072;2023-02-15T01:25:45;24.40;;;16.33;;
5010;SDS011;2524;54.364;10.072;2023-02-15T01:28:10;25.87;;;17.90;;
5010;SDS011;2524;54.364;10.072;2023-02-15T01:30:36;25.93;;;16.30;;
5010;SDS011;2524;54.364;10.072;2023-02-15T01:33:02;24.83;;;16.70;;
5010;SDS011;2524;54.364;10.072;2023-02-15T01:35:28;25.53;;;16.77;;
5010;SDS011;2524;54.364;10.072;2023-02-15T01:37:57;23.27;;;16.50;;
5010;SDS011;2524;54.364;10.072;2023-02-15T01:40:23;23.97;;;16.13;;
5010;SDS011;2524;54.364;10.072;2023-02-15T01:42:50;25.67;;;16.70;;
5010;SDS011;2524;54.364;10.072;2023-02-15T01:45:21;26.50;;;17.50;;
5010;SDS011;2524;54.364;10.072;2023-02-15T01:47:58;21.53;;;16.23;;
5010;SDS011;2524;54.364;10.072;2023-02-15T01:50:46;27.53;;;16.17;;
5010;SDS011;2524;54.364;10.072;2023-02-15T01:53:47;23.87;;;17.37;;
5010;SDS011;2524;54.364;10.072;2023-02-15T01:56:19;27.40;;;17.13;;
5010;SDS011;2524;54.364;10.072;2023-02-15T01:58:49;29.53;;;19.17;;
5010;SDS011;2524;54.364;10.072;2023-02-15T02:01:17;28.90;;;19.27;;
5010;SDS011;2524;54.364;10.072;2023-02-15T02:04:02;28.40;;;19.33;;
5010;SDS011;2524;54.364;10.072;2023-02-15T02:06:29;31.23;;;18.80;;
5010;SDS011;2524;54.364;10.072;2023-02-15T02:08:57;31.93;;;19.80;;
5010;SDS011;2524;54.364;10.072;2023-02-15T02:11:23;31.87;;;19.20;;
5010;SDS011;2524;54.364;10.072;2023-02-15T02:13:49;29.63;;;19.13;;
5010;SDS011;2524;54.364;10.072;2023-02-15T02:16:19;31.57;;;19.00;;
5010;SDS011;2524;54.364;10.072;2023-02-15T02:19:11;24.17;;;15.20;;
5010;SDS011;2524;54.364;10.072;2023-02-15T02:27:34;22.07;;;13.90;;
5010;SDS011;2524;54.364;10.072;2023-02-15T02:30:08;28.60;;;17.73;;
5010;SDS011;2524;54.364;10.072;2023-02-15T02:38:11;23.37;;;15.73;;
5010;SDS011;2524;54.364;10.072;2023-02-15T02:43:47;24.00;;;15.47;;
5010;SDS011;2524;54.364;10.072;2023-02-15T02:46:21;23.27;;;15.20;;
5010;SDS011;2524;54.364;10.072;2023-02-15T02:48:53;25.43;;;18.47;;
5010;SDS011;2524;54.364;10.072;2023-02-15T02:51:19;22.83;;;15.13;;
5010;SDS011;2524;54.364;10.072;2023-02-15T02:53:51;17.87;;;12.90;;
5010;SDS011;2524;54.364;10.072;2023-02-15T02:56:27;24.73;;;16.97;;
5010;SDS011;2524;54.364;10.072;2023-02-15T02:59:02;25.40;;;16.13;;
5010;SDS011;2524;54.364;10.072;2023-02-15T03:01:41;24.97;;;17.10;;
5010;SDS011;2524;54.364;10.072;2023-02-15T03:04:13;22.63;;;16.60;;
5010;SDS011;2524;54.364;10.072;2023-02-15T03:06:47;22.00;;;15.27;;
5010;SDS011;2524;54.364;10.072;2023-02-15T03:09:25;17.73;;;13.70;;
5010;SDS011;2524;54.364;10.072;2023-02-15T03:12:07;17.30;;;13.27;;
5010;SDS011;2524;54.364;10.072;2023-02-15T03:14:35;19.20;;;15.17;;
5010;SDS011;2524;54.364;10.072;2023-02-15T03:17:01;15.87;;;13.10;;
5010;SDS011;2524;54.364;10.072;2023-02-15T03:19:30;15.97;;;13.70;;
5010;SDS011;2524;54.364;10.072;2023-02-15T03:21:59;17.20;;;14.37;;
5010;SDS011;2524;54.364;10.072;2023-02-15T03:27:22;23.30;;;16.90;;
5010;SDS011;2524;54.364;10.072;2023-02-15T03:29:52;17.07;;;15.37;;
5010;SDS011;2524;54.364;10.072;2023-02-15T03:32:21;17.67;;;15.87;;
5010;SDS011;2524;54.364;10.072;2023-02-15T03:34:49;16.97;;;14.97;;
5010;SDS011;2524;54.364;10.072;2023-02-15T03:37:35;13.67;;;12.20;;
5010;SDS011;2524;54.364;10.072;2023-02-15T03:40:09;13.17;;;11.77;;
5010;SDS011;2524;54.364;10.072;2023-02-15T03:42:58;12.73;;;11.37;;
5010;SDS011;2524;54.364;10.072;2023-02-15T03:45:32;12.00;;;10.70;;
5010;SDS011;2524;54.364;10.072;2023-02-15T03:48:00;19.27;;;15.90;;
5010;SDS011;2524;54.364;10.072;2023-02-15T03:50:29;14.60;;;12.33;;
5010;SDS011;2524;54.364;10.072;2023-02-15T03:53:16;11.80;;;10.60;;
5010;SDS011;2524;54.364;10.072;2023-02-15T03:55:49;15.83;;;14.23;;
5010;SDS011;2524;54.364;10.072;2023-02-15T03:58:17;10.07;;;9.17;;
5010;SDS011;2524;54.364;10.072;2023-02-15T04:01:09;12.27;;;11.10;;
5010;SDS011;2524;54.364;10.072;2023-02-15T04:04:12;10.70;;;9.70;;
5010;SDS011;2524;54.364;10.072;2023-02-15T04:06:43;13.83;;;12.43;;
5010;SDS011;2524;54.364;10.072;2023-02-15T04:09:08;12.50;;;11.20;;
5010;SDS011;2524;54.364;10.072;2023-02-15T04:11:52;11.93;;;10.83;;
5010;SDS011;2524;54.364;10.072;2023-02-15T04:14:18;11.10;;;10.10;;
5010;SDS011;2524;54.364;10.072;2023-02-15T04:17:04;11.93;;;10.83;;
5010;SDS011;2524;54.364;10.072;2023-02-15T04:19:31;27.17;;;15.10;;
5010;SDS011;2524;54.364;10.072;2023-02-15T04:22:15;12.83;;;11.70;;
5010;SDS011;2524;54.364;10.072;2023-02-15T04:24:59;12.17;;;11.07;;
5010;SDS011;2524;54.364;10.072;2023-02-15T04:27:34;11.87;;;10.77;;
5010;SDS011;2524;54.364;10.072;2023-02-15T04:30:00;11.07;;;10.07;;
5010;SDS011;2524;54.364;10.072;2023-02-15T04:32:26;11.40;;;10.33;;
5010;SDS011;2524;54.364;10.072;2023-02-15T04:34:52;11.43;;;10.43;;
5010;SDS011;2524;54.364;10.072;2023-02-15T04:37:18;13.57;;;12.27;;
5010;SDS011;2524;54.364;10.072;2023-02-15T04:39:43;14.00;;;12.60;;
5010;SDS011;2524;54.364;10.072;2023-02-15T04:42:09;13.70;;;12.30;;
5010;SDS011;2524;54.364;10.072;2023-02-15T04:44:34;12.83;;;11.53;;
5010;SDS011;2524;54.364;10.072;2023-02-15T04:47:00;14.33;;;12.93;;
5010;SDS011;2524;54.364;10.072;2023-02-15T04:49:25;13.13;;;11.83;;
5010;SDS011;2524;54.364;10.072;2023-02-15T04:51:51;15.47;;;13.87;;
5010;SDS011;2524;54.364;10.072;2023-02-15T04:54:17;13.20;;;11.90;;
5010;SDS011;2524;54.364;10.072;2023-02-15T04:56:42;11.53;;;10.43;;
5010;SDS011;2524;54.364;10.072;2023-02-15T04:59:11;13.60;;;12.20;;
5010;SDS011;2524;54.364;10.072;2023-02-15T05:01:37;11.63;;;10.53;;
5010;SDS011;2524;54.364;10.072;2023-02-15T05:04:03;15.77;;;13.87;;
5010;SDS011;2524;54.364;10.072;2023-02-15T05:06:29;15.20;;;13.60;;
5010;SDS011;2524;54.364;10.072;2023-02-15T05:08:55;13.33;;;11.93;;
5010;SDS011;2524;54.364;10.072;2023-02-15T05:11:20;14.03;;;12.60;;
5010;SDS011;2524;54.364;10.072;2023-02-15T05:13:46;12.53;;;11.33;;
5010;SDS011;2524;54.364;10.072;2023-02-15T05:16:12;13.30;;;11.90;;
5010;SDS011;2524;54.364;10.072;2023-02-15T05:18:37;12.20;;;10.93;;
5010;SDS011;2524;54.364;10.072;2023-02-15T05:21:03;12.07;;;10.87;;
5010;SDS011;2524;54.364;10.072;2023-02-15T05:23:28;11.60;;;10.50;;
5010;SDS011;2524;54.364;10.072;2023-02-15T05:25:54;12.30;;;11.10;;
5010;SDS011;2524;54.364;10.072;2023-02-15T05:28:38;12.20;;;11.10;;
5010;SDS011;2524;54.364;10.072;2023-02-15T05:33:35;10.43;;;9.43;;
5010;SDS011;2524;54.364;10.072;2023-02-15T05:36:01;9.53;;;8.73;;
5010;SDS011;2524;54.364;10.072;2023-02-15T05:38:28;10.30;;;9.30;;
5010;SDS011;2524;54.364;10.072;2023-02-15T05:40:54;10.27;;;9.30;;
5010;SDS011;2524;54.364;10.072;2023-02-15T05:43:20;9.90;;;9.00;;
5010;SDS011;2524;54.364;10.072;2023-02-15T05:45:50;10.43;;;9.50;;
5010;SDS011;2524;54.364;10.072;2023-02-15T05:48:17;9.30;;;8.47;;
5010;SDS011;2524;54.364;10.072;2023-02-15T05:50:44;11.00;;;10.00;;
5010;SDS011;2524;54.364;10.072;2023-02-15T05:53:09;10.27;;;9.27;;
5010;SDS011;2524;54.364;10.072;2023-02-15T05:55:39;12.50;;;11.30;;
5010;SDS011;2524;54.364;10.072;2023-02-15T05:58:05;11.17;;;10.13;;
5010;SDS011;2524;54.364;10.072;2023-02-15T06:00:32;11.93;;;10.77;;
5010;SDS011;2524;54.364;10.072;2023-02-15T06:02:58;7.77;;;7.13;;
5010;SDS011;2524;54.364;10.072;2023-02-15T06:05:24;13.27;;;11.87;;
5010;SDS011;2524;54.364;10.072;2023-02-15T06:07:50;10.77;;;9.77;;
5010;SDS011;2524;54.364;10.072;2023-02-15T06:10:15;12.77;;;11.40;;
5010;SDS011;2524;54.364;10.072;2023-02-15T06:12:41;12.90;;;11.60;;
5010;SDS011;2524;54.364;10.072;2023-02-15T06:15:08;12.43;;;11.20;;
5010;SDS011;2524;54.364;10.072;2023-02-15T06:17:34;11.33;;;10.23;;
5010;SDS011;2524;54.364;10.072;2023-02-15T06:19:59;9.67;;;8.70;;
5010;SDS011;2524;54.364;10.072;2023-02-15T06:22:25;9.10;;;8.20;;
5010;SDS011;2524;54.364;10.072;2023-02-15T06:24:50;12.03;;;10.83;;
5010;SDS011;2524;54.364;10.072;2023-02-15T06:27:16;13.47;;;12.13;;
5010;SDS011;2524;54.364;10.072;2023-02-15T06:29:41;13.67;;;12.27;;
5010;SDS011;2524;54.364;10.072;2023-02-15T06:32:07;11.97;;;10.77;;
5010;SDS011;2524;54.364;10.072;2023-02-15T06:34:32;11.73;;;10.63;;
5010;SDS011;2524;54.364;10.072;2023-02-15T06:36:58;14.37;;;12.20;;
5010;SDS011;2524;54.364;10.072;2023-02-15T06:39:24;11.00;;;10.00;;
5010;SDS011;2524;54.364;10.072;2023-02-15T06:41:49;12.40;;;11.20;;
5010;SDS011;2524;54.364;10.072;2023-02-15T06:44:15;12.43;;;11.13;;
5010;SDS011;2524;54.364;10.072;2023-02-15T06:46:40;10.40;;;9.40;;
5010;SDS011;2524;54.364;10.072;2023-02-15T06:49:06;11.90;;;10.70;;
5010;SDS011;2524;54.364;10.072;2023-02-15T06:51:31;12.27;;;11.07;;
5010;SDS011;2524;54.364;10.072;2023-02-15T06:53:58;14.30;;;12.80;;
5010;SDS011;2524;54.364;10.072;2023-02-15T06:56:24;11.43;;;10.43;;
5010;SDS011;2524;54.364;10.072;2023-02-15T06:58:50;13.87;;;12.43;;
5010;SDS011;2524;54.364;10.072;2023-02-15T07:01:17;15.00;;;13.50;;
5010;SDS011;2524;54.364;10.072;2023-02-15T07:03:43;15.07;;;13.47;;
5010;SDS011;2524;54.364;10.072;2023-02-15T07:06:08;12.10;;;10.90;;
5010;SDS011;2524;54.364;10.072;2023-02-15T07:08:35;11.03;;;9.90;;
5010;SDS011;2524;54.364;10.072;2023-02-15T07:11:02;13.60;;;12.27;;
5010;SDS011;2524;54.364;10.072;2023-02-15T07:14:01;11.97;;;10.77;;
5010;SDS011;2524;54.364;10.072;2023-02-15T07:16:27;11.10;;;9.93;;
5010;SDS011;2524;54.364;10.072;2023-02-15T07:18:52;11.73;;;10.37;;
5010;SDS011;2524;54.364;10.072;2023-02-15T07:21:18;11.80;;;10.60;;
5010;SDS011;2524;54.364;10.072;2023-02-15T07:23:44;13.33;;;11.93;;
5010;SDS011;2524;54.364;10.072;2023-02-15T07:26:09;12.47;;;11.17;;
5010;SDS011;2524;54.364;10.072;2023-02-15T07:28:35;14.23;;;12.57;;
5010;SDS011;2524;54.364;10.072;2023-02-15T07:31:01;13.47;;;12.07;;
5010;SDS011;2524;54.364;10.072;2023-02-15T07:33:27;11.83;;;10.60;;
5010;SDS011;2524;54.364;10.072;2023-02-15T07:35:58;12.80;;;11.50;;
5010;SDS011;2524;54.364;10.072;2023-02-15T07:38:27;11.57;;;10.40;;
5010;SDS011;2524;54.364;10.072;2023-02-15T07:41:01;11.37;;;10.27;;
5010;SDS011;2524;54.364;10.072;2023-02-15T07:43:28;10.80;;;9.70;;
5010;SDS011;2524;54.364;10.072;2023-02-15T07:45:58;12.80;;;10.70;;
5010;SDS011;2524;54.364;10.072;2023-02-15T07:48:27;42.67;;;15.63;;
5010;SDS011;2524;54.364;10.072;2023-02-15T07:50:53;13.40;;;11.80;;
5010;SDS011;2524;54.364;10.072;2023-02-15T07:53:19;16.10;;;13.10;;
5010;SDS011;2524;54.364;10.072;2023-02-15T07:55:45;13.27;;;11.87;;
5010;SDS011;2524;54.364;10.072;2023-02-15T07:58:10;14.70;;;12.47;;
5010;SDS011;2524;54.364;10.072;2023-02-15T08:00:36;13.77;;;11.70;;
5010;SDS011;2524;54.364;10.072;2023-02-15T08:03:24;11.60;;;10.50;;
5010;SDS011;2524;54.364;10.072;2023-02-15T08:05:58;9.67;;;8.77;;
5010;SDS011;2524;54.364;10.072;2023-02-15T08:08:24;13.10;;;11.80;;
5010;SDS011;2524;54.364;10.072;2023-02-15T08:10:58;15.70;;;14.10;;
5010;SDS011;2524;54.364;10.072;2023-02-15T08:13:44;12.63;;;11.43;;
5010;SDS011;2524;54.364;10.072;2023-02-15T08:16:21;11.13;;;10.00;;
5010;SDS011;2524;54.364;10.072;2023-02-15T08:18:48;13.53;;;12.13;;
5010;SDS011;2524;54.364;10.072;2023-02-15T08:21:14;12.07;;;10.87;;
5010;SDS011;2524;54.364;10.072;2023-02-15T08:23:39;13.30;;;12.00;;
5010;SDS011;2524;54.364;10.072;2023-02-15T08:26:05;12.07;;;10.40;;
5010;SDS011;2524;54.364;10.072;2023-02-15T08:28:30;18.23;;;13.60;;
5010;SDS011;2524;54.364;10.072;2023-02-15T08:31:03;13.43;;;12.03;;
5010;SDS011;2524;54.364;10.072;2023-02-15T08:33:33;14.97;;;13.03;;
5010;SDS011;2524;54.364;10.072;2023-02-15T08:36:07;16.27;;;14.57;;
5010;SDS011;2524;54.364;10.072;2023-02-15T08:38:37;14.07;;;12.43;;
5010;SDS011;2524;54.364;10.072;2023-02-15T08:41:13;14.30;;;12.60;;
5010;SDS011;2524;54.364;10.072;2023-02-15T08:43:44;14.70;;;12.57;;
5010;SDS011;2524;54.364;10.072;2023-02-15T08:46:11;38.03;;;19.30;;
5010;SDS011;2524;54.364;10.072;2023-02-15T08:48:37;15.53;;;13.80;;
5010;SDS011;2524;54.364;10.072;2023-02-15T08:51:17;15.30;;;13.70;;
5010;SDS011;2524;54.364;10.072;2023-02-15T08:53:46;12.23;;;11.03;;
5010;SDS011;2524;54.364;10.072;2023-02-15T08:56:17;14.53;;;13.03;;
5010;SDS011;2524;54.364;10.072;2023-02-15T08:58:45;12.70;;;11.47;;
5010;SDS011;2524;54.364;10.072;2023-02-15T09:01:11;12.80;;;11.50;;
5010;SDS011;2524;54.364;10.072;2023-02-15T09:03:43;12.30;;;11.10;;
5010;SDS011;2524;54.364;10.072;2023-02-15T09:06:09;13.53;;;11.53;;
5010;SDS011;2524;54.364;10.072;2023-02-15T09:08:36;11.20;;;10.00;;
5010;SDS011;2524;54.364;10.072;2023-02-15T09:11:12;21.43;;;15.40;;
5010;SDS011;2524;54.364;10.072;2023-02-15T09:13:51;15.40;;;13.50;;
5010;SDS011;2524;54.364;10.072;2023-02-15T09:16:18;12.10;;;10.53;;
5010;SDS011;2524;54.364;10.072;2023-02-15T09:18:45;13.83;;;12.43;;
5010;SDS011;2524;54.364;10.072;2023-02-15T09:21:15;21.00;;;15.17;;
5010;SDS011;2524;54.364;10.072;2023-02-15T09:23:43;14.90;;;12.97;;
5010;SDS011;2524;54.364;10.072;2023-02-15T09:26:11;14.63;;;13.13;;
5010;SDS011;2524;54.364;10.072;2023-02-15T09:28:38;13.20;;;11.90;;
5010;SDS011;2524;54.364;10.072;2023-02-15T09:33:43;20.30;;;16.47;;
5010;SDS011;2524;54.364;10.072;2023-02-15T09:36:18;17.87;;;15.00;;
5010;SDS011;2524;54.364;10.072;2023-02-15T09:59:10;12.63;;;11.33;;
5010;SDS011;2524;54.364;10.072;2023-02-15T10:28:57;18.40;;;15.53;;
5010;SDS011;2524;54.364;10.072;2023-02-15T10:34:19;17.50;;;14.30;;
5010;SDS011;2524;54.364;10.072;2023-02-15T10:44:33;19.27;;;15.43;;
5010;SDS011;2524;54.364;10.072;2023-02-15T10:55:39;15.67;;;13.90;;
5010;SDS011;2524;54.364;10.072;2023-02-15T11:03:40;27.67;;;19.37;;
5010;SDS011;2524;54.364;10.072;2023-02-15T11:06:19;16.23;;;14.30;;
5010;SDS011;2524;54.364;10.072;2023-02-15T11:08:54;13.60;;;11.80;;
5010;SDS011;2524;54.364;10.072;2023-02-15T11:11:27;24.70;;;19.17;;
5010;SDS011;2524;54.364;10.072;2023-02-15T11:14:01;65.83;;;24.90;;
5010;SDS011;2524;54.364;10.072;2023-02-15T11:16:32;28.93;;;21.20;;
5010;SDS011;2524;54.364;10.072;2023-02-15T11:21:45;23.63;;;17.60;;
5010;SDS011;2524;54.364;10.072;2023-02-15T11:24:19;23.93;;;18.07;;
5010;SDS011;2524;54.364;10.072;2023-02-15T11:26:48;19.20;;;14.73;;
5010;SDS011;2524;54.364;10.072;2023-02-15T11:32:21;21.97;;;16.70;;
5010;SDS011;2524;54.364;10.072;2023-02-15T11:37:18;19.73;;;15.70;;
5010;SDS011;2524;54.364;10.072;2023-02-15T11:39:50;36.63;;;23.93;;
5010;SDS011;2524;54.364;10.072;2023-02-15T11:42:20;25.73;;;19.70;;
5010;SDS011;2524;54.364;10.072;2023-02-15T11:47:44;17.87;;;13.90;;
5010;SDS011;2524;54.364;10.072;2023-02-15T11:50:31;17.43;;;14.47;;
5010;SDS011;2524;54.364;10.072;2023-02-15T11:53:04;24.57;;;17.70;;
5010;SDS011;2524;54.364;10.072;2023-02-15T11:55:37;16.53;;;14.17;;
5010;SDS011;2524;54.364;10.072;2023-02-15T11:58:23;14.03;;;12.40;;
5010;SDS011;2524;54.364;10.072;2023-02-15T12:03:43;19.00;;;15.70;;
5010;SDS011;2524;54.364;10.072;2023-02-15T12:06:25;22.70;;;18.17;;
5010;SDS011;2524;54.364;10.072;2023-02-15T12:09:00;19.20;;;15.83;;
5010;SDS011;2524;54.364;10.072;2023-02-15T12:11:33;16.53;;;13.50;;
5010;SDS011;2524;54.364;10.072;2023-02-15T12:14:03;18.97;;;15.67;;
5010;SDS011;2524;54.364;10.072;2023-02-15T12:16:49;20.30;;;15.73;;
5010;SDS011;2524;54.364;10.072;2023-02-15T12:21:53;18.10;;;14.20;;
5010;SDS011;2524;54.364;10.072;2023-02-15T12:27:03;18.60;;;15.40;;
5010;SDS011;2524;54.364;10.072;2023-02-15T12:29:59;24.57;;;19.03;;
5010;SDS011;2524;54.364;10.072;2023-02-15T12:32:33;33.70;;;24.87;;
5010;SDS011;2524;54.364;10.072;2023-02-15T12:35:08;36.50;;;25.60;;
5010;SDS011;2524;54.364;10.072;2023-02-15T12:37:38;23.80;;;17.77;;
5010;SDS011;2524;54.364;10.072;2023-02-15T12:40:22;20.77;;;17.43;;
5010;SDS011;2524;54.364;10.072;2023-02-15T12:42:50;28.07;;;21.33;;
5010;SDS011;2524;54.364;10.072;2023-02-15T12:47:47;19.17;;;15.47;;
5010;SDS011;2524;54.364;10.072;2023-02-15T12:50:44;19.20;;;14.20;;
5010;SDS011;2524;54.364;10.072;2023-02-15T12:53:18;15.20;;;12.70;;
5010;SDS011;2524;54.364;10.072;2023-02-15T12:55:59;14.00;;;11.90;;
5010;SDS011;2524;54.364;10.072;2023-02-15T12:58:27;12.43;;;11.13;;
5010;SDS011;2524;54.364;10.072;2023-02-15T13:01:16;17.50;;;14.70;;
5010;SDS011;2524;54.364;10.072;2023-02-15T13:04:14;13.60;;;12.20;;
5010;SDS011;2524;54.364;10.072;2023-02-15T13:06:51;21.53;;;17.93;;
5010;SDS011;2524;54.364;10.072;2023-02-15T13:09:20;38.03;;;27.50;;
5010;SDS011;2524;54.364;10.072;2023-02-15T13:11:48;23.77;;;18.93;;
5010;SDS011;2524;54.364;10.072;2023-02-15T13:14:18;22.57;;;17.93;;
5010;SDS011;2524;54.364;10.072;2023-02-15T13:16:47;28.10;;;21.00;;
5010;SDS011;2524;54.364;10.072;2023-02-15T13:19:18;30.23;;;22.20;;
5010;SDS011;2524;54.364;10.072;2023-02-15T13:21:49;25.17;;;18.47;;
5010;SDS011;2524;54.364;10.072;2023-02-15T13:24:22;20.47;;;15.70;;
5010;SDS011;2524;54.364;10.072;2023-02-15T13:27:00;18.23;;;14.40;;
5010;SDS011;2524;54.364;10.072;2023-02-15T13:29:27;17.63;;;13.83;;
5010;SDS011;2524;54.364;10.072;2023-02-15T13:31:55;15.43;;;13.67;;
5010;SDS011;2524;54.364;10.072;2023-02-15T13:34:28;34.33;;;24.10;;
5010;SDS011;2524;54.364;10.072;2023-02-15T13:37:02;42.03;;;29.70;;
5010;SDS011;2524;54.364;10.072;2023-02-15T13:42:39;31.13;;;23.40;;
5010;SDS011;2524;54.364;10.072;2023-02-15T13:45:14;35.20;;;25.80;;
5010;SDS011;2524;54.364;10.072;2023-02-15T13:48:09;32.40;;;24.23;;
5010;SDS011;2524;54.364;10.072;2023-02-15T13:50:47;25.43;;;19.73;;
5010;SDS011;2524;54.364;10.072;2023-02-15T13:59:01;51.30;;;33.37;;
5010;SDS011;2524;54.364;10.072;2023-02-15T14:02:18;41.97;;;28.97;;
5010;SDS011;2524;54.364;10.072;2023-02-15T14:13:31;25.77;;;20.40;;
5010;SDS011;2524;54.364;10.072;2023-02-15T14:21:47;19.70;;;16.03;;
5010;SDS011;2524;54.364;10.072;2023-02-15T14:24:42;27.23;;;21.27;;
5010;SDS011;2524;54.364;10.072;2023-02-15T14:30:03;15.73;;;12.60;;
5010;SDS011;2524;54.364;10.072;2023-02-15T14:32:41;18.87;;;14.63;;
5010;SDS011;2524;54.364;10.072;2023-02-15T14:35:17;11.87;;;10.37;;
5010;SDS011;2524;54.364;10.072;2023-02-15T14:40:42;22.50;;;16.93;;
5010;SDS011;2524;54.364;10.072;2023-02-15T14:56:46;32.83;;;24.87;;
5010;SDS011;2524;54.364;10.072;2023-02-15T15:09:32;29.73;;;20.70;;
5010;SDS011;2524;54.364;10.072;2023-02-15T15:14:45;28.50;;;22.00;;
5010;SDS011;2524;54.364;10.072;2023-02-15T15:20:00;40.93;;;27.70;;
5010;SDS011;2524;54.364;10.072;2023-02-15T15:22:29;36.13;;;26.87;;
5010;SDS011;2524;54.364;10.072;2023-02-15T15:24:58;35.90;;;25.50;;
5010;SDS011;2524;54.364;10.072;2023-02-15T15:32:54;45.50;;;30.23;;
5010;SDS011;2524;54.364;10.072;2023-02-15T15:41:48;29.53;;;21.27;;
5010;SDS011;2524;54.364;10.072;2023-02-15T15:47:32;39.13;;;26.40;;
5010;SDS011;2524;54.364;10.072;2023-02-15T15:50:15;47.13;;;31.10;;
5010;SDS011;2524;54.364;10.072;2023-02-15T15:52:47;51.47;;;33.50;;
5010;SDS011;2524;54.364;10.072;2023-02-15T15:55:39;42.43;;;28.33;;
5010;SDS011;2524;54.364;10.072;2023-02-15T15:58:06;36.53;;;26.00;;
5010;SDS011;2524;54.364;10.072;2023-02-15T16:00:36;29.00;;;21.67;;
5010;SDS011;2524;54.364;10.072;2023-02-15T16:03:15;71.13;;;42.17;;
5010;SDS011;2524;54.364;10.072;2023-02-15T16:05:45;44.23;;;27.47;;
5010;SDS011;2524;54.364;10.072;2023-02-15T16:08:10;67.10;;;41.30;;
5010;SDS011;2524;54.364;10.072;2023-02-15T16:10:36;62.30;;;41.00;;
5010;SDS011;2524;54.364;10.072;2023-02-15T16:13:02;46.20;;;31.20;;
5010;SDS011;2524;54.364;10.072;2023-02-15T16:15:42;39.10;;;25.90;;
5010;SDS011;2524;54.364;10.072;2023-02-15T16:18:13;34.23;;;21.10;;
5010;SDS011;2524;54.364;10.072;2023-02-15T16:20:40;41.53;;;26.73;;
5010;SDS011;2524;54.364;10.072;2023-02-15T16:23:16;31.60;;;23.23;;
5010;SDS011;2524;54.364;10.072;2023-02-15T16:26:09;50.57;;;31.67;;
5010;SDS011;2524;54.364;10.072;2023-02-15T16:28:52;55.07;;;34.97;;
5010;SDS011;2524;54.364;10.072;2023-02-15T16:31:19;60.07;;;36.83;;
5010;SDS011;2524;54.364;10.072;2023-02-15T16:33:47;69.57;;;43.23;;
5010;SDS011;2524;54.364;10.072;2023-02-15T16:36:26;64.27;;;39.83;;
5010;SDS011;2524;54.364;10.072;2023-02-15T16:41:28;57.00;;;36.57;;
5010;SDS011;2524;54.364;10.072;2023-02-15T16:44:16;62.47;;;36.90;;
5010;SDS011;2524;54.364;10.072;2023-02-15T16:46:46;53.03;;;33.40;;
5010;SDS011;2524;54.364;10.072;2023-02-15T16:49:18;43.77;;;29.70;;
5010;SDS011;2524;54.364;10.072;2023-02-15T16:52:00;40.93;;;25.93;;
5010;SDS011;2524;54.364;10.072;2023-02-15T16:54:28;31.27;;;21.70;;
5010;SDS011;2524;54.364;10.072;2023-02-15T16:56:56;33.00;;;21.10;;
5010;SDS011;2524;54.364;10.072;2023-02-15T16:59:28;65.33;;;39.63;;
5010;SDS011;2524;54.364;10.072;2023-02-15T17:01:57;76.57;;;45.80;;
5010;SDS011;2524;54.364;10.072;2023-02-15T17:04:26;66.70;;;40.53;;
5010;SDS011;2524;54.364;10.072;2023-02-15T17:06:58;55.93;;;35.03;;
5010;SDS011;2524;54.364;10.072;2023-02-15T17:09:29;112.53;;;53.67;;
5010;SDS011;2524;54.364;10.072;2023-02-15T17:11:55;96.37;;;51.40;;
5010;SDS011;2524;54.364;10.072;2023-02-15T17:14:31;66.63;;;38.20;;
5010;SDS011;2524;54.364;10.072;2023-02-15T17:17:11;93.77;;;49.70;;
5010;SDS011;2524;54.364;10.072;2023-02-15T17:19:49;98.40;;;50.77;;
5010;SDS011;2524;54.364;10.072;2023-02-15T17:22:22;97.63;;;51.03;;
5010;SDS011;2524;54.364;10.072;2023-02-15T17:24:57;65.50;;;36.57;;
5010;SDS011;2524;54.364;10.072;2023-02-15T17:27:24;57.13;;;33.37;;
5010;SDS011;2524;54.364;10.072;2023-02-15T17:29:56;46.37;;;28.57;;
5010;SDS011;2524;54.364;10.072;2023-02-15T17:32:25;40.90;;;27.27;;
5010;SDS011;2524;54.364;10.072;2023-02-15T17:34:59;72.27;;;43.23;;
5010;SDS011;2524;54.364;10.072;2023-02-15T17:37:41;74.17;;;42.40;;
5010;SDS011;2524;54.364;10.072;2023-02-15T17:40:26;59.53;;;33.80;;
5010;SDS011;2524;54.364;10.072;2023-02-15T17:42:56;73.23;;;39.33;;
5010;SDS011;2524;54.364;10.072;2023-02-15T17:45:22;54.10;;;32.87;;
5010;SDS011;2524;54.364;10.072;2023-02-15T17:47:51;78.30;;;42.77;;
5010;SDS011;2524;54.364;10.072;2023-02-15T17:50:21;84.77;;;44.87;;
5010;SDS011;2524;54.364;10.072;2023-02-15T17:52:49;95.80;;;49.50;;
5010;SDS011;2524;54.364;10.072;2023-02-15T17:55:16;71.37;;;40.20;;
5010;SDS011;2524;54.364;10.072;2023-02-15T17:58:01;89.67;;;46.63;;
5010;SDS011;2524;54.364;10.072;2023-02-15T18:00:31;145.80;;;64.67;;
5010;SDS011;2524;54.364;10.072;2023-02-15T18:03:19;109.17;;;52.53;;
5010;SDS011;2524;54.364;10.072;2023-02-15T18:06:03;103.70;;;50.47;;
5010;SDS011;2524;54.364;10.072;2023-02-15T18:08:48;103.60;;;49.60;;
5010;SDS011;2524;54.364;10.072;2023-02-15T18:11:32;101.00;;;50.23;;